Time;durP1;ratioP1;P1;durP2;ratioP2;P2;SDS_P1;SDS_P2;PMS_P1;PMS_P2;Temp;Humidity;BMP_temperature;BMP_pressure;BME280_temperature;BME280_humidity;BME280_pressure;Samples;Min_cycle;Max_cycle;Signal;HPM_P1;HPM_P2
2023/05/05 00:00:20;;;;;;;11.32;3.97;;;;;;;-146.25;78.56;52102.59;2079378;28;32670;-68
2023/05/05 00:01:22;;;;;;;8.25;3.67;;;;;;;-146.25;79.00;52139.09;2079197;28;31928;-68
2023/05/05 00:02:24;;;;;;;12.02;3.85;;;;;;;-146.25;79.36;52133.00;2079684;28;34098;-68
2023/05/05 00:03:26;;;;;;;11.88;3.88;;;;;;;-146.25;79.47;52157.34;2080365;28;20887;-68
2023/05/05 00:04:28;;;;;;;7.68;3.50;;;;;;;-146.25;78.68;52124.91;2087136;28;28686;-68
2023/05/05 00:05:30;;;;;;;9.55;3.42;;;;;;;-146.25;79.10;52126.91;2087300;28;36670;-68
2023/05/05 00:06:31;;;;;;;8.48;3.60;;;;;;;-146.25;79.30;52159.34;2079865;28;35616;-67
2023/05/05 00:07:38;;;;;;;8.57;3.50;;;;;;;-146.25;78.83;52124.91;2079747;28;34985;-67
2023/05/05 00:08:40;;;;;;;6.82;3.58;;;;;;;-146.25;79.47;52133.00;2079529;28;20144;-68
2023/05/05 00:09:42;;;;;;;10.02;4.07;;;;;;;-146.25;79.50;52135.03;2079277;28;36247;-68
2023/05/05 00:10:49;;;;;;;8.05;3.45;;;;;;;-146.25;79.43;52120.84;2079655;28;31041;-68
2023/05/05 00:11:50;;;;;;;8.90;3.80;;;;;;;-146.25;79.57;52155.31;2087596;28;33839;-68
2023/05/05 00:12:52;;;;;;;7.85;3.25;;;;;;;-146.25;79.66;52165.44;2078778;28;38130;-68
2023/05/05 00:13:54;;;;;;;12.00;3.75;;;;;;;-146.25;79.54;52116.78;2079608;28;20994;-67
2023/05/05 00:14:56;;;;;;;12.80;3.67;;;;;;;-146.25;80.12;52137.06;2080533;28;20038;-68
2023/05/05 00:15:59;;;;;;;8.15;3.67;;;;;;;-146.25;79.59;52153.28;2080073;28;36619;-67
2023/05/05 00:17:03;;;;;;;12.90;3.97;;;;;;;-146.25;79.68;52173.56;2087374;28;35597;-68
2023/05/05 00:18:05;;;;;;;11.82;3.67;;;;;;;-146.25;80.31;52155.31;2086869;28;35238;-68
2023/05/05 00:19:06;;;;;;;9.70;3.65;;;;;;;-146.25;79.85;52112.72;2079809;28;35394;-68
2023/05/05 00:20:08;;;;;;;8.77;3.15;;;;;;;-146.25;80.17;52139.09;2079394;28;36315;-68
2023/05/05 00:21:10;;;;;;;10.50;4.03;;;;;;;-146.25;79.72;52100.56;2079307;28;33340;-68
2023/05/05 00:22:12;;;;;;;8.88;3.78;;;;;;;-146.25;80.04;52124.91;2079865;28;32560;-68
2023/05/05 00:23:15;;;;;;;11.40;3.90;;;;;;;-146.25;80.09;52137.06;2079468;28;33925;-68
2023/05/05 00:24:17;;;;;;;10.30;3.70;;;;;;;-146.25;80.27;52165.44;2079499;28;36121;-68
2023/05/05 00:25:19;;;;;;;9.80;3.47;;;;;;;-146.25;80.33;52155.31;2079427;28;35112;-68
2023/05/05 00:26:21;;;;;;;7.70;3.63;;;;;;;-146.25;80.89;52159.34;2080194;28;20042;-67
2023/05/05 00:27:24;;;;;;;8.75;3.28;;;;;;;-146.25;80.84;52104.63;2079126;28;20855;-70
2023/05/05 00:28:26;;;;;;;7.68;3.50;;;;;;;-146.25;81.26;52114.75;2075311;28;20053;-68
2023/05/05 00:29:28;;;;;;;10.00;3.00;;;;;;;-146.25;81.31;52153.28;2079079;28;36006;-68
2023/05/05 00:30:30;;;;;;;12.32;3.35;;;;;;;-146.25;81.33;52122.88;2079630;28;30075;-68
2023/05/05 00:31:32;;;;;;;8.80;3.50;;;;;;;-146.25;81.25;52185.72;2080095;28;22536;-69
2023/05/05 00:32:34;;;;;;;8.77;2.95;;;;;;;-146.25;81.06;52128.94;2079615;28;28085;-68
2023/05/05 00:33:35;;;;;;;7.60;3.13;;;;;;;-146.25;81.06;52151.25;2080151;28;23094;-69
2023/05/05 00:34:37;;;;;;;12.68;3.45;;;;;;;-146.25;80.70;52149.22;2079791;28;27056;-68
2023/05/05 00:35:39;;;;;;;11.18;4.03;;;;;;;-146.25;80.96;52108.66;2079594;28;30367;-68
2023/05/05 00:36:41;;;;;;;8.43;3.45;;;;;;;-146.25;81.21;52130.97;2079614;28;20038;-69
2023/05/05 00:37:43;;;;;;;8.98;3.60;;;;;;;-146.25;81.27;52151.25;2079792;28;26524;-69
2023/05/05 00:38:45;;;;;;;6.95;3.17;;;;;;;-146.25;81.68;52133.00;2079411;28;24256;-68
2023/05/05 00:39:47;;;;;;;7.65;3.42;;;;;;;-146.25;81.12;52157.34;2087726;28;20169;-68
2023/05/05 00:40:49;;;;;;;8.68;3.42;;;;;;;-146.25;81.94;52110.69;2087141;28;27342;-69
2023/05/05 00:41:51;;;;;;;7.60;3.22;;;;;;;-146.25;82.05;52130.97;2087734;28;20053;-68
2023/05/05 00:42:53;;;;;;;7.65;3.50;;;;;;;-146.25;82.17;52116.78;2086844;28;28383;-68
2023/05/05 00:43:54;;;;;;;8.35;3.75;;;;;;;-146.25;82.38;52173.56;2079128;28;29773;-69
2023/05/05 00:44:57;;;;;;;13.60;4.38;;;;;;;-146.25;81.70;52141.13;2079320;28;24660;-68
2023/05/05 00:46:07;;;;;;;8.55;3.88;;;;;;;-146.25;81.73;52159.34;2078688;28;28256;-69
2023/05/05 00:47:10;;;;;;;9.32;3.88;;;;;;;-146.25;82.02;52139.09;2072526;28;20148;-68
2023/05/05 00:48:13;;;;;;;11.98;4.03;;;;;;;-146.25;82.58;52159.34;2080122;28;29981;-69
2023/05/05 00:49:15;;;;;;;7.38;3.92;;;;;;;-146.25;82.49;52135.03;2080284;28;32279;-69
2023/05/05 00:50:25;;;;;;;10.68;4.50;;;;;;;-146.25;82.25;52175.56;2080966;28;20180;-69
2023/05/05 00:51:27;;;;;;;11.63;3.80;;;;;;;-146.25;82.66;52124.91;2081034;28;22852;-69
2023/05/05 00:52:30;;;;;;;11.35;3.63;;;;;;;-146.25;83.20;52167.47;2080413;28;25510;-69
2023/05/05 00:53:32;;;;;;;14.88;3.95;;;;;;;-146.25;83.09;52141.13;2080588;28;27980;-69
2023/05/05 00:54:34;;;;;;;12.43;3.97;;;;;;;-146.25;83.25;52187.75;2080627;28;31656;-68
2023/05/05 00:55:36;;;;;;;11.10;3.85;;;;;;;-146.25;83.25;52120.84;2080868;28;27685;-69
2023/05/05 00:56:38;;;;;;;12.48;3.60;;;;;;;-146.25;83.10;52143.13;2080673;28;22922;-68
2023/05/05 00:57:39;;;;;;;9.80;3.90;;;;;;;-146.25;83.20;52157.34;2079863;28;38424;-69
2023/05/05 00:58:42;;;;;;;8.95;3.58;;;;;;;-146.25;83.58;52147.19;2080292;28;30310;-68
2023/05/05 00:59:45;;;;;;;10.70;3.78;;;;;;;-146.25;83.34;52151.25;2080809;28;23230;-69
2023/05/05 01:00:47;;;;;;;9.25;3.78;;;;;;;-146.25;83.37;52116.78;2080604;28;33050;-68
2023/05/05 01:01:51;;;;;;;7.65;3.70;;;;;;;-146.25;83.24;52124.91;2080977;28;24735;-68
2023/05/05 01:02:55;;;;;;;9.75;3.78;;;;;;;-146.25;83.67;52165.44;2080321;28;29430;-67
2023/05/05 01:03:57;;;;;;;10.85;3.60;;;;;;;-146.25;83.60;52153.28;2073196;28;30051;-69
2023/05/05 01:04:59;;;;;;;7.38;3.13;;;;;;;-146.25;83.48;52112.72;2080488;28;26893;-68
2023/05/05 01:06:32;;;;;;;11.13;3.72;;;;;;;-146.25;83.96;52106.66;2081891;28;20038;-68
2023/05/05 01:07:42;;;;;;;9.20;3.45;;;;;;;-146.25;84.31;52133.00;2081174;28;25743;-68
2023/05/05 01:09:18;;;;;;;9.27;3.58;;;;;;;-146.25;84.24;52141.13;2081178;28;20057;-68
2023/05/05 01:10:41;;;;;;;8.20;3.70;;;;;;;-146.25;83.93;52157.34;2081166;28;20244;-68
2023/05/05 01:12:03;;;;;;;7.10;3.25;;;;;;;-146.25;84.42;52133.00;2080871;28;30241;-68
2023/05/05 01:13:44;;;;;;;8.75;3.35;;;;;;;-146.25;84.14;52169.50;2076944;28;25556;-68
2023/05/05 01:15:13;;;;;;;12.77;3.80;;;;;;;-146.25;84.73;52159.34;2080441;28;28132;-68
2023/05/05 01:16:26;;;;;;;7.13;3.33;;;;;;;-146.25;84.10;52124.91;2084390;28;30665;-68
2023/05/05 01:18:05;;;;;;;8.27;3.35;;;;;;;-146.25;84.35;52141.13;2083495;28;20118;-68
2023/05/05 01:19:33;;;;;;;9.38;3.60;;;;;;;-146.25;84.36;52116.78;2078832;28;33890;-68
2023/05/05 01:21:13;;;;;;;7.15;3.33;;;;;;;-146.25;84.33;52133.00;2081136;28;24861;-68
2023/05/05 01:22:21;;;;;;;10.75;3.72;;;;;;;-146.25;84.99;52149.22;2071105;28;29496;-68
2023/05/05 01:23:52;;;;;;;10.60;4.03;;;;;;;-146.25;85.10;52161.38;2080977;28;21099;-68
2023/05/05 01:25:30;;;;;;;15.85;3.83;;;;;;;-146.25;85.15;52189.78;2080875;28;21073;-68
2023/05/05 01:27:15;;;;;;;11.32;3.80;;;;;;;-146.25;85.20;52169.50;2080347;28;29093;-68
2023/05/05 01:28:44;;;;;;;12.90;3.53;;;;;;;-146.25;85.22;52126.91;2080873;28;27346;-68
2023/05/05 01:30:30;;;;;;;12.68;4.22;;;;;;;-146.25;85.46;52149.22;2080668;28;31258;-68
2023/05/05 01:31:53;;;;;;;7.22;3.28;;;;;;;-146.25;85.10;52165.44;2088709;28;30124;-68
2023/05/05 01:33:05;;;;;;;10.13;3.65;;;;;;;-146.25;85.41;52141.13;2080214;28;32768;-68
2023/05/05 01:34:12;;;;;;;8.60;3.72;;;;;;;-146.25;85.20;52133.00;2081988;28;32374;-68
2023/05/05 01:35:28;;;;;;;10.68;3.95;;;;;;;-146.25;85.43;52157.34;2080513;28;28797;-68
2023/05/05 01:36:41;;;;;;;8.18;3.70;;;;;;;-146.25;85.47;52143.13;2074591;28;20155;-68
2023/05/05 01:38:01;;;;;;;7.32;3.28;;;;;;;-146.25;85.67;52116.78;2073746;28;23907;-68
2023/05/05 01:39:06;;;;;;;10.95;3.30;;;;;;;-146.25;85.73;52128.94;2081151;28;35575;-68
2023/05/05 01:40:11;;;;;;;8.65;3.33;;;;;;;-146.25;85.54;52128.94;2080589;28;20030;-68
2023/05/05 01:41:24;;;;;;;9.38;3.72;;;;;;;-146.25;85.18;52147.19;2079905;28;30316;-68
2023/05/05 01:42:28;;;;;;;10.15;3.35;;;;;;;-146.25;85.46;52161.38;2079693;28;28751;-68
2023/05/05 01:43:33;;;;;;;7.20;3.33;;;;;;;-146.25;85.56;52128.94;2063929;28;26774;-68
2023/05/05 01:44:37;;;;;;;9.43;3.53;;;;;;;-146.25;85.56;52122.88;2073226;28;36959;-68
2023/05/05 01:45:42;;;;;;;12.52;3.78;;;;;;;-146.25;85.71;52135.03;2080086;28;30656;-68
2023/05/05 01:46:45;;;;;;;11.38;4.13;;;;;;;-146.25;85.96;52135.03;2072713;28;32409;-68
2023/05/05 01:47:47;;;;;;;10.68;3.90;;;;;;;-146.25;86.16;52139.09;2081519;28;20084;-68
2023/05/05 01:48:52;;;;;;;11.63;3.63;;;;;;;-146.25;85.74;52141.13;2080682;28;20042;-68
2023/05/05 01:49:54;;;;;;;13.32;3.70;;;;;;;-146.25;85.47;52159.34;2080231;28;34253;-68
2023/05/05 01:50:57;;;;;;;10.57;3.88;;;;;;;-146.25;86.18;52157.34;2088018;28;36688;-68
2023/05/05 01:52:02;;;;;;;13.82;3.88;;;;;;;-146.25;85.61;52139.09;2080076;28;23763;-68
2023/05/05 01:53:06;;;;;;;6.15;3.15;;;;;;;-146.25;85.46;52179.63;2080689;28;31221;-69
2023/05/05 01:54:08;;;;;;;7.18;3.13;;;;;;;-146.25;85.98;52169.50;2081004;28;20061;-68
2023/05/05 01:55:13;;;;;;;10.35;3.80;;;;;;;-146.25;85.95;52126.91;2080114;28;31916;-68
2023/05/05 01:56:16;;;;;;;9.65;3.35;;;;;;;-146.25;86.23;52157.34;2088479;28;29066;-67
2023/05/05 01:57:20;;;;;;;8.57;3.58;;;;;;;-146.25;86.08;52153.28;2080175;28;20124;-68
2023/05/05 01:58:25;;;;;;;8.85;3.60;;;;;;;-146.25;85.88;52128.94;2080299;28;20034;-68
2023/05/05 01:59:28;;;;;;;12.18;3.40;;;;;;;-146.25;85.85;52161.38;2072468;28;20081;-69
2023/05/05 02:00:31;;;;;;;9.38;2.90;;;;;;;-146.25;86.41;52151.25;2078245;28;20046;-68
2023/05/05 02:01:38;;;;;;;7.07;3.10;;;;;;;-146.25;86.75;52153.28;2063873;28;20039;-68
2023/05/05 02:02:43;;;;;;;11.60;3.38;;;;;;;-146.25;86.37;52157.34;2065281;28;20055;-68
2023/05/05 02:03:50;;;;;;;10.45;3.25;;;;;;;-146.25;86.44;52135.03;2072847;28;20231;-68
2023/05/05 02:04:56;;;;;;;5.90;3.30;;;;;;;-146.25;86.04;52130.97;2078995;28;24700;-68
2023/05/05 02:06:00;;;;;;;9.18;3.67;;;;;;;-146.25;86.53;52137.06;2063398;28;22565;-68
2023/05/05 02:07:03;;;;;;;8.50;2.97;;;;;;;-146.25;86.83;52151.25;2065100;28;20920;-68
2023/05/05 02:08:07;;;;;;;8.77;3.28;;;;;;;-146.25;86.51;52096.50;2063404;28;20202;-68
2023/05/05 02:09:14;;;;;;;7.75;3.03;;;;;;;-146.25;85.96;52128.94;2065293;28;20832;-68
2023/05/05 02:10:16;;;;;;;9.40;3.17;;;;;;;-146.25;86.85;52128.94;2071926;28;20081;-69
2023/05/05 02:11:18;;;;;;;7.10;2.92;;;;;;;-146.25;86.30;52141.13;2071991;28;30609;-68
2023/05/05 02:12:21;;;;;;;10.68;3.00;;;;;;;-146.25;86.16;52149.22;2071592;28;20038;-68
2023/05/05 02:13:24;;;;;;;9.80;3.17;;;;;;;-146.25;86.74;52128.94;2064382;28;20047;-68
2023/05/05 02:14:29;;;;;;;7.55;2.75;;;;;;;-146.25;86.13;52177.59;2072281;28;20065;-68
2023/05/05 02:15:32;;;;;;;16.35;3.50;;;;;;;-146.25;86.21;52153.28;2072168;28;35492;-69
2023/05/05 02:16:36;;;;;;;10.20;3.28;;;;;;;-146.25;86.21;52155.31;2079704;28;28707;-66
2023/05/05 02:17:42;;;;;;;8.80;3.35;;;;;;;-146.25;86.44;52153.28;2072155;28;27548;-68
2023/05/05 02:18:46;;;;;;;7.15;2.80;;;;;;;-146.25;86.22;52153.28;2065179;28;20129;-68
2023/05/05 02:19:51;;;;;;;8.68;3.45;;;;;;;-146.25;86.70;52118.81;2072638;28;20105;-68
2023/05/05 02:20:53;;;;;;;7.50;3.10;;;;;;;-146.25;86.37;52183.69;2063353;28;21639;-68
2023/05/05 02:21:56;;;;;;;8.80;3.10;;;;;;;-146.25;86.15;52185.72;2064777;28;20388;-68
2023/05/05 02:22:58;;;;;;;7.80;3.20;;;;;;;-146.25;86.55;52153.28;2072448;28;20039;-68
2023/05/05 02:24:01;;;;;;;8.20;3.47;;;;;;;-146.25;86.65;52163.41;2071971;28;20085;-68
2023/05/05 02:25:03;;;;;;;10.10;3.22;;;;;;;-146.25;86.47;52141.13;2064279;28;20097;-68
2023/05/05 02:26:08;;;;;;;7.60;3.20;;;;;;;-146.25;86.89;52137.06;2071665;28;33295;-68
2023/05/05 02:27:10;;;;;;;9.15;3.22;;;;;;;-146.25;87.31;52137.06;2063676;28;26909;-68
2023/05/05 02:28:20;;;;;;;8.18;2.70;;;;;;;-146.25;87.57;52153.28;2059702;28;33028;-68
2023/05/05 02:29:30;;;;;;;8.50;3.33;;;;;;;-146.25;86.94;52141.13;2080313;28;28310;-68
2023/05/05 02:30:35;;;;;;;11.70;3.08;;;;;;;-146.25;87.08;52133.00;2080221;28;20050;-68
2023/05/05 02:31:45;;;;;;;7.25;2.50;;;;;;;-146.25;87.32;52133.00;2072868;28;20086;-68
2023/05/05 02:32:58;;;;;;;8.73;2.78;;;;;;;-146.25;87.03;52177.59;2065121;28;20086;-68
2023/05/05 02:34:06;;;;;;;9.45;2.95;;;;;;;-146.25;87.63;52124.91;2075266;28;20177;-68
2023/05/05 02:35:21;;;;;;;10.85;3.83;;;;;;;-146.25;87.29;52173.56;2082190;28;20092;-68
2023/05/05 02:36:28;;;;;;;9.65;3.28;;;;;;;-146.25;87.37;52141.13;2080847;28;20041;-68
2023/05/05 02:37:35;;;;;;;8.07;3.15;;;;;;;-146.25;87.73;52151.25;2065989;28;20871;-68
2023/05/05 02:38:43;;;;;;;10.85;3.08;;;;;;;-146.25;88.14;52175.56;2073572;28;20045;-68
2023/05/05 02:39:57;;;;;;;10.05;3.28;;;;;;;-146.25;88.15;52145.16;2079852;28;30324;-67
2023/05/05 02:41:03;;;;;;;8.38;3.30;;;;;;;-146.25;88.26;52171.53;2080043;28;20049;-68
2023/05/05 02:42:08;;;;;;;7.15;3.35;;;;;;;-146.25;88.28;52149.22;2081919;28;20054;-68
2023/05/05 02:43:15;;;;;;;7.30;3.42;;;;;;;-146.25;88.02;52124.91;2070900;28;20817;-68
2023/05/05 02:44:20;;;;;;;8.80;3.08;;;;;;;-146.25;88.35;52193.81;2073431;28;20970;-68
2023/05/05 02:45:26;;;;;;;7.60;2.90;;;;;;;-146.25;88.07;52163.41;2063857;28;20098;-68
2023/05/05 02:46:28;;;;;;;8.07;3.13;;;;;;;-146.25;88.46;52139.09;2074440;28;20935;-68
2023/05/05 02:47:37;;;;;;;9.88;3.10;;;;;;;-146.25;88.02;52185.72;2087443;28;20822;-68
2023/05/05 02:48:42;;;;;;;11.35;3.33;;;;;;;-146.25;88.04;52161.38;2080320;28;20120;-68
2023/05/05 02:49:44;;;;;;;8.00;3.15;;;;;;;-146.25;88.77;52133.00;2079624;28;22865;-68
2023/05/05 02:50:45;;;;;;;7.25;2.85;;;;;;;-146.25;88.53;52124.91;2079889;28;20701;-68
2023/05/05 02:51:57;;;;;;;9.77;3.50;;;;;;;-146.25;87.92;52159.34;2079949;28;20855;-68
2023/05/05 02:53:03;;;;;;;6.20;3.17;;;;;;;-146.25;88.51;52118.81;2080771;28;20045;-68
2023/05/05 02:54:05;;;;;;;9.98;3.38;;;;;;;-146.25;88.61;52137.06;2071843;28;20443;-68
2023/05/05 02:55:08;;;;;;;9.68;3.42;;;;;;;-146.25;88.22;52169.50;2072211;28;26759;-68
2023/05/05 02:56:43;;;;;;;8.23;3.10;;;;;;;-146.25;88.97;52124.91;2080259;28;20477;-69
2023/05/05 02:58:06;;;;;;;7.28;3.15;;;;;;;-146.25;88.57;52169.50;2079985;28;28329;-69
2023/05/05 02:59:19;;;;;;;6.22;2.90;;;;;;;-146.25;88.28;52149.22;2080364;28;20060;-68
2023/05/05 03:00:59;;;;;;;11.73;3.10;;;;;;;-146.25;88.76;52143.13;2086399;28;20045;-69
2023/05/05 03:02:44;;;;;;;6.00;3.00;;;;;;;-146.25;88.93;52173.56;2082028;28;20772;-68
2023/05/05 03:04:06;;;;;;;6.40;3.00;;;;;;;-146.25;88.62;52124.91;2088210;28;20045;-68
2023/05/05 03:05:20;;;;;;;12.05;3.33;;;;;;;-146.25;89.41;52120.84;2080411;28;20101;-68
2023/05/05 03:06:26;;;;;;;5.80;3.17;;;;;;;-146.25;89.31;52116.78;2080300;28;20892;-67
2023/05/05 03:07:51;;;;;;;5.05;3.00;;;;;;;-146.25;89.51;52139.09;2080911;28;20038;-68
2023/05/05 03:09:16;;;;;;;7.95;3.22;;;;;;;-146.25;89.11;52139.09;2080265;28;23050;-68
2023/05/05 03:10:27;;;;;;;6.25;3.13;;;;;;;-146.25;88.92;52141.13;2079241;28;20050;-67
2023/05/05 03:11:47;;;;;;;8.20;3.17;;;;;;;-146.25;89.29;52126.91;2080130;28;20701;-67
2023/05/05 03:12:59;;;;;;;8.25;3.20;;;;;;;-146.25;89.34;52141.13;2079554;28;24884;-68
2023/05/05 03:14:17;;;;;;;8.60;3.17;;;;;;;-146.25;89.04;52169.50;2079509;28;20072;-67
2023/05/05 03:15:26;;;;;;;14.20;3.75;;;;;;;-146.25;89.35;52124.91;2079822;28;20057;-68
2023/05/05 03:16:31;;;;;;;14.32;3.80;;;;;;;-146.25;89.53;52141.13;2073507;28;20966;-68
2023/05/05 03:17:38;;;;;;;8.77;3.33;;;;;;;-146.25;89.17;52157.34;2080265;28;32219;-68
2023/05/05 03:18:41;;;;;;;7.93;3.20;;;;;;;-146.25;89.36;52179.63;2079463;28;20050;-68
2023/05/05 03:19:46;;;;;;;7.72;3.20;;;;;;;-146.25;89.14;52137.06;2072125;28;20891;-68
2023/05/05 03:20:49;;;;;;;10.02;3.45;;;;;;;-146.25;89.57;52155.31;2072647;28;20758;-68
2023/05/05 03:21:53;;;;;;;9.73;3.33;;;;;;;-146.25;89.58;52165.44;2072160;28;20054;-67
2023/05/05 03:22:57;;;;;;;7.82;3.20;;;;;;;-146.25;89.38;52161.38;2071993;28;20042;-66
2023/05/05 03:23:59;;;;;;;9.60;3.47;;;;;;;-146.25;89.46;52173.56;2072000;28;21487;-68
2023/05/05 03:25:00;;;;;;;6.93;2.70;;;;;;;-146.25;89.22;52126.91;2079455;28;20065;-66
2023/05/05 03:26:02;;;;;;;8.68;3.08;;;;;;;-146.25;89.68;52161.38;2080908;28;20034;-68
2023/05/05 03:27:11;;;;;;;8.60;3.65;;;;;;;-146.25;89.49;52173.56;2079567;28;21121;-68
2023/05/05 03:28:15;;;;;;;11.05;3.25;;;;;;;-146.25;89.46;52161.38;2088115;28;20033;-69
2023/05/05 03:29:17;;;;;;;8.82;3.78;;;;;;;-146.25;89.87;52175.56;2087683;28;20223;-68
2023/05/05 03:30:21;;;;;;;7.00;3.50;;;;;;;-146.25;89.35;52183.69;2079776;28;20042;-68
2023/05/05 03:31:27;;;;;;;7.53;3.17;;;;;;;-146.25;89.59;52185.72;2080597;28;20043;-69
2023/05/05 03:32:31;;;;;;;9.85;3.35;;;;;;;-146.25;89.65;52130.97;2079419;28;20042;-68
2023/05/05 03:33:35;;;;;;;9.55;2.95;;;;;;;-146.25;89.12;52161.38;2071663;28;20042;-68
2023/05/05 03:34:37;;;;;;;11.18;3.78;;;;;;;-146.25;88.89;52151.25;2080167;28;20044;-68
2023/05/05 03:35:40;;;;;;;8.23;2.95;;;;;;;-146.25;88.94;52104.63;2080318;28;20034;-68
2023/05/05 03:36:45;;;;;;;8.45;3.17;;;;;;;-146.25;89.00;52137.06;2079853;28;20089;-68
2023/05/05 03:37:49;;;;;;;10.88;3.00;;;;;;;-146.25;88.40;52157.34;2087899;28;20143;-68
2023/05/05 03:38:52;;;;;;;7.82;3.08;;;;;;;-146.25;89.02;52147.19;2080062;28;20042;-68
2023/05/05 03:39:54;;;;;;;8.90;3.65;;;;;;;-146.25;88.69;52149.22;2063819;28;20078;-68
2023/05/05 03:41:01;;;;;;;7.75;3.35;;;;;;;-146.25;88.89;52159.34;2071869;28;20890;-68
2023/05/05 03:42:05;;;;;;;7.68;2.88;;;;;;;-146.25;89.17;52128.94;2072846;28;20832;-68
2023/05/05 03:43:09;;;;;;;8.82;3.58;;;;;;;-146.25;88.94;52153.28;2080634;28;20844;-68
2023/05/05 03:44:11;;;;;;;9.15;3.10;;;;;;;-146.25;88.92;52133.00;2079611;28;20089;-68
2023/05/05 03:45:13;;;;;;;9.07;3.20;;;;;;;-146.25;88.70;52141.13;2080206;28;20026;-69
2023/05/05 03:46:15;;;;;;;7.50;3.30;;;;;;;-146.25;88.42;52122.88;2087682;28;20147;-68
2023/05/05 03:47:17;;;;;;;6.63;2.70;;;;;;;-146.25;88.95;52161.38;2088175;28;20045;-68
2023/05/05 03:48:19;;;;;;;10.82;3.25;;;;;;;-146.25;88.94;52175.56;2088081;28;20072;-68
2023/05/05 03:49:21;;;;;;;10.10;3.03;;;;;;;-146.25;88.37;52165.44;2079908;28;20041;-67
2023/05/05 03:50:24;;;;;;;5.18;2.55;;;;;;;-146.25;88.63;52177.59;2079534;28;20079;-68
2023/05/05 03:51:26;;;;;;;6.90;2.58;;;;;;;-146.25;88.70;52171.53;2079733;28;20038;-68
2023/05/05 03:52:29;;;;;;;6.82;3.30;;;;;;;-146.25;88.74;52163.41;2079684;28;20955;-68
2023/05/05 03:53:33;;;;;;;7.00;2.80;;;;;;;-146.25;88.73;52143.13;2080310;28;20046;-68
2023/05/05 03:54:38;;;;;;;6.70;2.45;;;;;;;-146.25;88.55;52133.00;2079669;28;20954;-68
2023/05/05 03:55:43;;;;;;;9.38;3.05;;;;;;;-146.25;88.55;52139.09;2080730;28;20046;-68
2023/05/05 03:56:45;;;;;;;7.32;2.67;;;;;;;-146.25;88.32;52108.66;2087608;28;20902;-68
2023/05/05 03:57:50;;;;;;;7.43;3.13;;;;;;;-146.25;88.33;52171.53;2080448;28;20177;-68
2023/05/05 03:58:51;;;;;;;7.38;2.78;;;;;;;-146.25;88.03;52151.25;2079139;28;20046;-68
2023/05/05 03:59:53;;;;;;;8.75;2.72;;;;;;;-146.25;88.17;52165.44;2079745;28;20034;-68
2023/05/05 04:00:55;;;;;;;7.22;2.95;;;;;;;-146.25;87.73;52157.34;2087763;28;24572;-68
2023/05/05 04:01:58;;;;;;;11.18;3.40;;;;;;;-146.25;88.16;52201.94;2079650;28;20144;-68
2023/05/05 04:03:00;;;;;;;10.25;2.92;;;;;;;-146.25;87.98;52167.47;2079998;28;20042;-68
2023/05/05 04:04:02;;;;;;;12.82;3.33;;;;;;;-146.25;87.59;52175.56;2087495;28;20049;-68
2023/05/05 04:05:03;;;;;;;6.50;2.83;;;;;;;-146.25;87.59;52161.38;2087121;28;23045;-68
2023/05/05 04:06:06;;;;;;;7.93;3.17;;;;;;;-146.25;87.71;52159.34;2078982;28;20175;-69
2023/05/05 04:07:08;;;;;;;6.75;2.70;;;;;;;-146.25;87.23;52141.13;2079520;28;20085;-68
2023/05/05 04:08:10;;;;;;;5.55;2.72;;;;;;;-146.25;87.15;52157.34;2087423;28;22128;-68
2023/05/05 04:09:12;;;;;;;8.10;2.90;;;;;;;-146.25;87.04;52167.47;2087807;28;20053;-69
2023/05/05 04:10:15;;;;;;;7.75;3.08;;;;;;;-146.25;86.93;52157.34;2079523;28;20045;-68
2023/05/05 04:11:20;;;;;;;10.35;3.40;;;;;;;-146.25;86.72;52197.88;2079711;28;21038;-68
2023/05/05 04:12:22;;;;;;;10.20;3.08;;;;;;;-146.25;86.19;52185.72;2079747;28;20045;-68
2023/05/05 04:13:24;;;;;;;6.95;3.10;;;;;;;-146.25;86.09;52163.41;2079130;28;20052;-68
2023/05/05 04:14:25;;;;;;;7.60;3.00;;;;;;;-146.25;86.37;52128.94;2079284;28;20119;-68
2023/05/05 04:15:27;;;;;;;9.93;3.03;;;;;;;-146.25;86.14;52165.44;2088275;28;20049;-68
2023/05/05 04:16:31;;;;;;;12.07;2.85;;;;;;;-146.25;85.96;52171.53;2071239;28;24483;-68
2023/05/05 04:17:33;;;;;;;9.23;3.03;;;;;;;-146.25;85.27;52165.44;2080079;28;20881;-68
2023/05/05 04:18:36;;;;;;;8.05;3.03;;;;;;;-146.25;85.07;52128.94;2079298;28;20046;-68
2023/05/05 04:19:38;;;;;;;6.43;2.85;;;;;;;-146.25;85.05;52137.06;2079644;28;20046;-66
2023/05/05 04:20:41;;;;;;;7.03;2.75;;;;;;;-146.25;84.79;52155.31;2078925;28;20168;-68
2023/05/05 04:21:44;;;;;;;6.32;3.03;;;;;;;-146.25;84.57;52163.41;2078937;28;20034;-68
2023/05/05 04:22:47;;;;;;;7.70;2.90;;;;;;;-146.25;84.90;52157.34;2079443;28;20046;-68
2023/05/05 04:23:53;;;;;;;6.40;2.90;;;;;;;-146.25;85.02;52159.34;2078885;28;20045;-68
2023/05/05 04:24:56;;;;;;;6.88;2.78;;;;;;;-146.25;84.72;52130.97;2071191;28;20043;-68
2023/05/05 04:25:58;;;;;;;8.48;2.88;;;;;;;-146.25;84.66;52173.56;2079427;28;20034;-68
2023/05/05 04:27:01;;;;;;;10.25;2.97;;;;;;;-146.25;84.16;52151.25;2086951;28;20095;-68
2023/05/05 04:28:04;;;;;;;8.80;3.35;;;;;;;-146.25;83.96;52177.59;2079242;28;20148;-68
2023/05/05 04:29:06;;;;;;;8.82;2.95;;;;;;;-146.25;84.18;52155.31;2078556;28;20050;-68
2023/05/05 04:30:08;;;;;;;9.27;2.80;;;;;;;-146.25;83.75;52165.44;2078975;28;28541;-68
2023/05/05 04:31:12;;;;;;;7.22;2.72;;;;;;;-146.25;83.93;52161.38;2087554;28;20029;-68
2023/05/05 04:32:16;;;;;;;8.13;2.75;;;;;;;-146.25;83.82;52175.56;2079281;28;20088;-68
2023/05/05 04:33:18;;;;;;;8.68;3.10;;;;;;;-146.25;83.78;52153.28;2079141;28;20980;-68
2023/05/05 04:34:22;;;;;;;7.35;2.75;;;;;;;-146.25;84.20;52193.81;2078721;28;20168;-68
2023/05/05 04:35:24;;;;;;;8.07;2.80;;;;;;;-146.25;83.46;52163.41;2071358;28;20168;-68
2023/05/05 04:36:27;;;;;;;8.75;2.97;;;;;;;-146.25;83.83;52167.47;2078981;28;20042;-68
2023/05/05 04:37:28;;;;;;;8.05;2.95;;;;;;;-146.25;84.14;52149.22;2079652;28;20042;-68
2023/05/05 04:38:32;;;;;;;9.25;2.90;;;;;;;-146.25;83.57;52153.28;2088261;28;21035;-67
2023/05/05 04:39:35;;;;;;;8.27;2.92;;;;;;;-146.25;83.60;52175.56;2079117;28;20943;-68
2023/05/05 04:40:39;;;;;;;7.80;2.83;;;;;;;-146.25;84.01;52171.53;2079045;28;20056;-68
2023/05/05 04:41:42;;;;;;;9.27;3.00;;;;;;;-146.25;83.05;52122.88;2078653;28;20034;-68
2023/05/05 04:42:44;;;;;;;6.63;2.85;;;;;;;-146.25;83.49;52189.78;2078730;28;26816;-68
2023/05/05 04:43:46;;;;;;;7.47;2.92;;;;;;;-146.25;83.70;52133.00;2078810;28;20228;-68
2023/05/05 04:44:48;;;;;;;8.52;2.42;;;;;;;-146.25;84.05;52169.50;2079460;28;20038;-68
2023/05/05 04:45:52;;;;;;;7.65;3.00;;;;;;;-146.25;83.63;52147.19;2078939;28;20050;-67
2023/05/05 04:46:56;;;;;;;8.23;2.53;;;;;;;-146.25;84.11;52155.31;2079778;28;20116;-68
2023/05/05 04:48:00;;;;;;;10.20;2.95;;;;;;;-146.25;83.83;52203.97;2087210;28;20936;-67
2023/05/05 04:49:05;;;;;;;6.72;2.80;;;;;;;-146.25;84.13;52173.56;2079415;28;20054;-68
2023/05/05 04:50:10;;;;;;;6.53;2.78;;;;;;;-146.25;84.22;52122.88;2080015;28;20038;-68
2023/05/05 04:51:15;;;;;;;8.82;2.83;;;;;;;-146.25;84.27;52177.59;2087392;28;20096;-68
2023/05/05 04:52:17;;;;;;;7.55;3.08;;;;;;;-146.25;84.13;52167.47;2079619;28;21158;-68
2023/05/05 04:53:18;;;;;;;12.75;2.78;;;;;;;-146.25;84.27;52141.13;2087954;28;20037;-67
2023/05/05 04:54:20;;;;;;;5.35;2.22;;;;;;;-146.25;83.73;52159.34;2078779;28;24450;-68
2023/05/05 04:55:23;;;;;;;8.27;2.90;;;;;;;-146.25;84.01;52193.81;2079882;28;20073;-68
2023/05/05 04:56:32;;;;;;;7.97;2.67;;;;;;;-146.25;83.79;52153.28;2078990;28;20831;-68
2023/05/05 04:57:33;;;;;;;8.10;2.33;;;;;;;-146.25;83.79;52130.97;2079628;28;26628;-68
2023/05/05 04:58:35;;;;;;;8.82;3.03;;;;;;;-146.25;84.09;52157.34;2079551;28;20876;-68
2023/05/05 04:59:37;;;;;;;11.23;3.05;;;;;;;-146.25;83.87;52145.16;2079323;28;20042;-68
2023/05/05 05:00:38;;;;;;;9.13;2.92;;;;;;;-146.25;83.66;52183.69;2079258;28;33623;-68
2023/05/05 05:01:41;;;;;;;9.43;3.00;;;;;;;-146.25;83.59;52179.63;2087736;28;20041;-68
2023/05/05 05:02:45;;;;;;;9.63;3.30;;;;;;;-146.25;83.66;52175.56;2078858;28;29650;-68
2023/05/05 05:03:47;;;;;;;7.53;3.15;;;;;;;-146.25;82.53;52157.34;2079072;28;31748;-68